sensor_id;sensor_type;location;lat;lon;timestamp;pressure;altitude;pressure_sealevel;temperature;humidity
10064;BME280;5071;52.360;13.134;2023-07-02T00:00:01;99869.19;;;18.07;98.90
10064;BME280;5071;52.360;13.134;2023-07-02T00:05:05;99866.25;;;18.12;98.52
10064;BME280;5071;52.360;13.134;2023-07-02T00:10:08;99877.84;;;18.12;98.24
10064;BME280;5071;52.360;13.134;2023-07-02T00:15:11;99884.97;;;18.13;98.01
10064;BME280;5071;52.360;13.134;2023-07-02T00:20:14;99884.28;;;18.10;98.35
10064;BME280;5071;52.360;13.134;2023-07-02T00:25:16;99874.56;;;18.07;98.34
10064;BME280;5071;52.360;13.134;2023-07-02T00:30:19;99894.47;;;18.03;98.61
10064;BME280;5071;52.360;13.134;2023-07-02T00:35:22;99887.19;;;18.05;98.40
10064;BME280;5071;52.360;13.134;2023-07-02T00:40:26;99896.91;;;17.92;98.28
10064;BME280;5071;52.360;13.134;2023-07-02T00:45:28;99889.53;;;17.79;98.88
10064;BME280;5071;52.360;13.134;2023-07-02T00:50:32;99901.56;;;17.72;98.75
10064;BME280;5071;52.360;13.134;2023-07-02T00:55:34;99895.41;;;17.70;99.15
10064;BME280;5071;52.360;13.134;2023-07-02T01:00:36;99897.59;;;17.79;98.38
10064;BME280;5071;52.360;13.134;2023-07-02T01:05:39;99901.06;;;17.81;98.53
10064;BME280;5071;52.360;13.134;2023-07-02T01:10:42;99906.56;;;17.78;98.26
10064;BME280;5071;52.360;13.134;2023-07-02T01:15:45;99901.13;;;17.80;98.63
10064;BME280;5071;52.360;13.134;2023-07-02T01:20:48;99908.31;;;17.79;98.07
10064;BME280;5071;52.360;13.134;2023-07-02T01:25:51;99906.56;;;17.78;97.91
10064;BME280;5071;52.360;13.134;2023-07-02T01:30:53;99904.06;;;17.75;95.48
10064;BME280;5071;52.360;13.134;2023-07-02T01:35:57;99903.28;;;17.73;95.45
10064;BME280;5071;52.360;13.134;2023-07-02T01:40:59;99913.38;;;17.68;95.54
10064;BME280;5071;52.360;13.134;2023-07-02T01:46:01;99918.59;;;17.71;95.65
10064;BME280;5071;52.360;13.134;2023-07-02T01:51:04;99920.94;;;17.61;95.28
10064;BME280;5071;52.360;13.134;2023-07-02T01:56:06;99909.50;;;17.58;95.79
10064;BME280;5071;52.360;13.134;2023-07-02T02:01:08;99908.00;;;17.52;95.31
10064;BME280;5071;52.360;13.134;2023-07-02T02:06:11;99902.91;;;17.47;95.61
10064;BME280;5071;52.360;13.134;2023-07-02T02:11:14;99911.13;;;17.44;95.44
10064;BME280;5071;52.360;13.134;2023-07-02T02:16:16;99912.25;;;17.40;95.13
10064;BME280;5071;52.360;13.134;2023-07-02T02:21:20;99916.19;;;17.33;95.76
10064;BME280;5071;52.360;13.134;2023-07-02T02:26:22;99922.69;;;17.29;96.48
10064;BME280;5071;52.360;13.134;2023-07-02T02:31:25;99920.94;;;17.28;96.30
10064;BME280;5071;52.360;13.134;2023-07-02T02:36:28;99908.56;;;17.25;96.52
10064;BME280;5071;52.360;13.134;2023-07-02T02:41:31;99927.56;;;17.21;97.00
10064;BME280;5071;52.360;13.134;2023-07-02T02:46:32;99931.38;;;17.17;97.48
10064;BME280;5071;52.360;13.134;2023-07-02T02:51:36;99929.66;;;17.16;96.95
10064;BME280;5071;52.360;13.134;2023-07-02T02:56:38;99927.91;;;17.15;96.38
10064;BME280;5071;52.360;13.134;2023-07-02T03:01:39;99934.53;;;17.07;95.59
10064;BME280;5071;52.360;13.134;2023-07-02T03:06:43;99935.50;;;17.06;95.17
10064;BME280;5071;52.360;13.134;2023-07-02T03:11:46;99939.09;;;17.05;95.36
10064;BME280;5071;52.360;13.134;2023-07-02T03:16:48;99938.25;;;17.05;94.57
10064;BME280;5071;52.360;13.134;2023-07-02T03:21:52;99944.47;;;17.05;93.78
10064;BME280;5071;52.360;13.134;2023-07-02T03:26:54;99941.63;;;17.08;93.63
10064;BME280;5071;52.360;13.134;2023-07-02T03:31:56;99936.50;;;17.04;92.71
10064;BME280;5071;52.360;13.134;2023-07-02T03:36:59;99933.81;;;17.04;92.42
10064;BME280;5071;52.360;13.134;2023-07-02T03:42:02;99940.84;;;17.06;91.94
10064;BME280;5071;52.360;13.134;2023-07-02T03:47:04;99938.97;;;17.08;91.70
10064;BME280;5071;52.360;13.134;2023-07-02T03:52:08;99947.44;;;17.17;90.94
10064;BME280;5071;52.360;13.134;2023-07-02T03:57:13;99963.72;;;17.14;91.14
10064;BME280;5071;52.360;13.134;2023-07-02T04:02:15;99963.72;;;17.14;90.96
10064;BME280;5071;52.360;13.134;2023-07-02T04:07:18;99962.84;;;17.13;91.25
10064;BME280;5071;52.360;13.134;2023-07-02T04:12:21;99968.91;;;17.17;90.79
10064;BME280;5071;52.360;13.134;2023-07-02T04:17:23;99970.19;;;17.27;91.18
10064;BME280;5071;52.360;13.134;2023-07-02T04:22:26;99981.34;;;17.35;89.84
10064;BME280;5071;52.360;13.134;2023-07-02T04:27:28;99980.09;;;17.42;89.86
10064;BME280;5071;52.360;13.134;2023-07-02T04:32:50;99975.31;;;17.65;87.17
10064;BME280;5071;52.360;13.134;2023-07-02T04:37:54;99979.81;;;18.14;86.65
10064;BME280;5071;52.360;13.134;2023-07-02T04:42:56;99993.50;;;18.57;84.05
10064;BME280;5071;52.360;13.134;2023-07-02T04:47:58;99993.13;;;19.54;77.89
10064;BME280;5071;52.360;13.134;2023-07-02T04:53:02;99995.47;;;18.69;80.42
10064;BME280;5071;52.360;13.134;2023-07-02T04:58:04;100006.75;;;18.76;80.45
10064;BME280;5071;52.360;13.134;2023-07-02T05:03:06;100008.97;;;18.99;79.04
10064;BME280;5071;52.360;13.134;2023-07-02T05:08:10;100018.84;;;20.03;74.90
10064;BME280;5071;52.360;13.134;2023-07-02T05:13:12;100025.06;;;19.46;75.34
10064;BME280;5071;52.360;13.134;2023-07-02T05:18:14;100023.66;;;20.82;69.71
10064;BME280;5071;52.360;13.134;2023-07-02T05:23:17;100021.84;;;19.84;73.37
10064;BME280;5071;52.360;13.134;2023-07-02T05:28:20;100025.78;;;20.21;72.51
10064;BME280;5071;52.360;13.134;2023-07-02T05:33:22;100031.47;;;20.02;71.81
10064;BME280;5071;52.360;13.134;2023-07-02T05:38:25;100039.94;;;19.81;74.27
10064;BME280;5071;52.360;13.134;2023-07-02T05:43:27;100038.25;;;19.20;74.47
10064;BME280;5071;52.360;13.134;2023-07-02T05:48:28;100037.84;;;20.01;71.73
10064;BME280;5071;52.360;13.134;2023-07-02T05:53:32;100038.66;;;21.66;63.77
10064;BME280;5071;52.360;13.134;2023-07-02T05:58:34;100038.41;;;21.95;61.15
10064;BME280;5071;52.360;13.134;2023-07-02T06:03:49;100057.28;;;23.67;58.67
10064;BME280;5071;52.360;13.134;2023-07-02T06:08:53;100042.28;;;23.03;56.93
10064;BME280;5071;52.360;13.134;2023-07-02T06:13:55;100048.91;;;22.25;58.29
10064;BME280;5071;52.360;13.134;2023-07-02T06:18:57;100058.59;;;20.42;66.01
10064;BME280;5071;52.360;13.134;2023-07-02T06:24:00;100046.41;;;19.63;67.85
10064;BME280;5071;52.360;13.134;2023-07-02T06:29:03;100034.50;;;19.53;68.42
10064;BME280;5071;52.360;13.134;2023-07-02T06:34:05;100053.59;;;19.78;69.31
10064;BME280;5071;52.360;13.134;2023-07-02T06:39:08;100053.91;;;23.52;56.91
10064;BME280;5071;52.360;13.134;2023-07-02T06:44:10;100038.59;;;23.04;55.87
10064;BME280;5071;52.360;13.134;2023-07-02T06:49:12;100042.75;;;21.85;59.96
10064;BME280;5071;52.360;13.134;2023-07-02T06:54:16;100049.59;;;20.70;63.31
10064;BME280;5071;52.360;13.134;2023-07-02T06:59:19;100051.19;;;20.17;66.40
10064;BME280;5071;52.360;13.134;2023-07-02T07:04:21;100059.19;;;20.18;65.23
10064;BME280;5071;52.360;13.134;2023-07-02T07:09:25;100063.13;;;19.98;65.82
10064;BME280;5071;52.360;13.134;2023-07-02T07:14:27;100048.53;;;20.58;63.32
10064;BME280;5071;52.360;13.134;2023-07-02T07:19:29;100050.91;;;20.77;62.05
10064;BME280;5071;52.360;13.134;2023-07-02T07:24:32;100052.88;;;22.45;58.11
10064;BME280;5071;52.360;13.134;2023-07-02T07:29:35;100070.03;;;24.23;53.30
10064;BME280;5071;52.360;13.134;2023-07-02T07:34:37;100069.53;;;21.75;60.16
10064;BME280;5071;52.360;13.134;2023-07-02T07:39:40;100068.78;;;20.66;62.18
10064;BME280;5071;52.360;13.134;2023-07-02T07:44:42;100073.03;;;19.98;65.51
10064;BME280;5071;52.360;13.134;2023-07-02T07:49:46;100080.19;;;19.99;66.92
10064;BME280;5071;52.360;13.134;2023-07-02T07:54:49;100082.63;;;19.73;66.46
10064;BME280;5071;52.360;13.134;2023-07-02T07:59:51;100087.84;;;19.91;65.96
10064;BME280;5071;52.360;13.134;2023-07-02T08:04:53;100090.09;;;19.68;67.55
10064;BME280;5071;52.360;13.134;2023-07-02T08:09:58;100095.34;;;19.55;68.24
10064;BME280;5071;52.360;13.134;2023-07-02T08:15:00;100101.88;;;19.21;69.06
10064;BME280;5071;52.360;13.134;2023-07-02T08:20:03;100127.88;;;18.90;68.32
10064;BME280;5071;52.360;13.134;2023-07-02T08:25:07;100147.16;;;18.16;70.31
10064;BME280;5071;52.360;13.134;2023-07-02T08:30:10;100112.25;;;17.28;74.99
10064;BME280;5071;52.360;13.134;2023-07-02T08:35:12;100104.56;;;17.21;77.16
10064;BME280;5071;52.360;13.134;2023-07-02T08:40:19;100100.97;;;17.22;77.07
10064;BME280;5071;52.360;13.134;2023-07-02T08:45:23;100101.94;;;17.38;78.84
10064;BME280;5071;52.360;13.134;2023-07-02T08:50:24;100110.84;;;17.56;76.90
10064;BME280;5071;52.360;13.134;2023-07-02T08:55:28;100112.72;;;17.54;75.28
10064;BME280;5071;52.360;13.134;2023-07-02T09:00:30;100122.03;;;17.82;74.56
10064;BME280;5071;52.360;13.134;2023-07-02T09:05:32;100124.00;;;18.13;72.48
10064;BME280;5071;52.360;13.134;2023-07-02T09:10:35;100121.94;;;18.68;71.90
10064;BME280;5071;52.360;13.134;2023-07-02T09:15:38;100117.78;;;19.10;70.95
10064;BME280;5071;52.360;13.134;2023-07-02T09:20:40;100133.25;;;18.90;70.50
10064;BME280;5071;52.360;13.134;2023-07-02T09:25:43;100132.00;;;19.28;73.05
10064;BME280;5071;52.360;13.134;2023-07-02T09:30:52;100130.56;;;19.52;70.13
10064;BME280;5071;52.360;13.134;2023-07-02T09:35:55;100147.50;;;19.69;66.96
10064;BME280;5071;52.360;13.134;2023-07-02T09:40:58;100138.63;;;19.83;67.79
10064;BME280;5071;52.360;13.134;2023-07-02T09:46:01;100142.47;;;19.78;66.95
10064;BME280;5071;52.360;13.134;2023-07-02T09:51:03;100134.44;;;20.79;63.46
10064;BME280;5071;52.360;13.134;2023-07-02T09:56:08;100132.63;;;25.54;51.24
10064;BME280;5071;52.360;13.134;2023-07-02T10:01:11;100139.84;;;24.55;50.76
10064;BME280;5071;52.360;13.134;2023-07-02T10:06:13;100136.91;;;26.10;46.24
10064;BME280;5071;52.360;13.134;2023-07-02T10:11:17;100130.75;;;27.20;44.10
10064;BME280;5071;52.360;13.134;2023-07-02T10:16:19;100127.44;;;22.86;53.10
10064;BME280;5071;52.360;13.134;2023-07-02T10:21:21;100133.78;;;22.85;53.68
10064;BME280;5071;52.360;13.134;2023-07-02T10:26:26;100125.44;;;25.85;47.46
10064;BME280;5071;52.360;13.134;2023-07-02T10:31:28;100139.16;;;26.26;46.24
10064;BME280;5071;52.360;13.134;2023-07-02T10:36:30;100143.69;;;26.67;45.55
10064;BME280;5071;52.360;13.134;2023-07-02T10:41:33;100123.09;;;25.16;48.39
10064;BME280;5071;52.360;13.134;2023-07-02T10:46:43;100123.50;;;23.98;51.78
10064;BME280;5071;52.360;13.134;2023-07-02T10:51:56;100112.47;;;23.77;51.36
10064;BME280;5071;52.360;13.134;2023-07-02T10:57:00;100136.97;;;21.77;55.85
10064;BME280;5071;52.360;13.134;2023-07-02T11:02:02;100119.13;;;23.01;48.70
10064;BME280;5071;52.360;13.134;2023-07-02T11:07:04;100125.81;;;23.21;47.68
10064;BME280;5071;52.360;13.134;2023-07-02T11:12:08;100130.53;;;22.43;48.45
10064;BME280;5071;52.360;13.134;2023-07-02T11:17:11;100137.03;;;22.15;48.82
10064;BME280;5071;52.360;13.134;2023-07-02T11:22:13;100138.75;;;22.55;48.02
10064;BME280;5071;52.360;13.134;2023-07-02T11:27:21;100130.78;;;23.14;46.96
10064;BME280;5071;52.360;13.134;2023-07-02T11:32:23;100141.31;;;22.69;46.89
10064;BME280;5071;52.360;13.134;2023-07-02T11:37:25;100145.84;;;23.18;47.22
10064;BME280;5071;52.360;13.134;2023-07-02T11:42:31;100145.66;;;23.33;43.43
10064;BME280;5071;52.360;13.134;2023-07-02T11:47:32;100142.69;;;23.48;40.99
10064;BME280;5071;52.360;13.134;2023-07-02T11:52:34;100162.59;;;23.72;40.46
10064;BME280;5071;52.360;13.134;2023-07-02T11:57:38;100158.00;;;23.37;39.67
10064;BME280;5071;52.360;13.134;2023-07-02T12:02:40;100162.28;;;23.52;39.18
10064;BME280;5071;52.360;13.134;2023-07-02T12:07:42;100157.97;;;23.85;38.19
10064;BME280;5071;52.360;13.134;2023-07-02T12:12:46;100170.44;;;23.63;38.99
10064;BME280;5071;52.360;13.134;2023-07-02T12:17:48;100157.28;;;23.70;39.09
10064;BME280;5071;52.360;13.134;2023-07-02T12:22:50;100158.47;;;23.79;37.86
10064;BME280;5071;52.360;13.134;2023-07-02T12:27:53;100164.13;;;23.87;37.29
10064;BME280;5071;52.360;13.134;2023-07-02T12:32:56;100163.72;;;24.04;38.27
10064;BME280;5071;52.360;13.134;2023-07-02T12:49:52;100174.91;;;24.00;37.51
10064;BME280;5071;52.360;13.134;2023-07-02T12:54:55;100164.78;;;23.66;38.46
10064;BME280;5071;52.360;13.134;2023-07-02T12:59:57;100181.69;;;22.72;39.81
10064;BME280;5071;52.360;13.134;2023-07-02T13:05:00;100197.34;;;22.93;40.58
10064;BME280;5071;52.360;13.134;2023-07-02T13:10:03;100205.94;;;23.23;41.42
10064;BME280;5071;52.360;13.134;2023-07-02T13:15:06;100183.66;;;24.03;38.70
10064;BME280;5071;52.360;13.134;2023-07-02T13:20:11;100192.03;;;24.00;39.16
10064;BME280;5071;52.360;13.134;2023-07-02T13:25:13;100205.91;;;23.60;37.36
10064;BME280;5071;52.360;13.134;2023-07-02T13:30:18;100218.88;;;23.92;37.09
10064;BME280;5071;52.360;13.134;2023-07-02T13:35:22;100214.31;;;23.93;38.23
10064;BME280;5071;52.360;13.134;2023-07-02T13:40:25;100223.59;;;24.01;37.52
10064;BME280;5071;52.360;13.134;2023-07-02T13:45:27;100208.28;;;24.47;37.15
10064;BME280;5071;52.360;13.134;2023-07-02T13:50:31;100214.72;;;23.99;35.55
10064;BME280;5071;52.360;13.134;2023-07-02T13:55:33;100220.59;;;23.69;36.37
10064;BME280;5071;52.360;13.134;2023-07-02T14:00:37;100234.31;;;24.50;37.16
10064;BME280;5071;52.360;13.134;2023-07-02T14:05:40;100221.63;;;24.03;36.09
10064;BME280;5071;52.360;13.134;2023-07-02T14:10:42;100229.00;;;24.01;36.41
10064;BME280;5071;52.360;13.134;2023-07-02T14:15:45;100229.56;;;23.82;36.58
10064;BME280;5071;52.360;13.134;2023-07-02T14:20:48;100247.75;;;23.56;36.46
10064;BME280;5071;52.360;13.134;2023-07-02T14:25:51;100240.50;;;24.05;36.75
10064;BME280;5071;52.360;13.134;2023-07-02T14:31:00;100256.09;;;23.53;37.35
10064;BME280;5071;52.360;13.134;2023-07-02T14:36:06;100255.47;;;24.22;35.31
10064;BME280;5071;52.360;13.134;2023-07-02T14:41:08;100248.63;;;24.05;35.13
10064;BME280;5071;52.360;13.134;2023-07-02T14:46:12;100245.97;;;23.92;35.34
10064;BME280;5071;52.360;13.134;2023-07-02T14:51:14;100242.81;;;23.13;36.07
10064;BME280;5071;52.360;13.134;2023-07-02T14:56:16;100261.44;;;23.79;35.21
10064;BME280;5071;52.360;13.134;2023-07-02T15:01:20;100265.00;;;24.39;34.45
10064;BME280;5071;52.360;13.134;2023-07-02T15:06:22;100257.06;;;23.89;35.03
10064;BME280;5071;52.360;13.134;2023-07-02T15:11:25;100255.81;;;23.82;36.50
10064;BME280;5071;52.360;13.134;2023-07-02T15:16:28;100256.44;;;24.21;36.75
10064;BME280;5071;52.360;13.134;2023-07-02T15:21:31;100266.22;;;24.93;35.19
10064;BME280;5071;52.360;13.134;2023-07-02T15:26:33;100269.53;;;23.55;35.67
10064;BME280;5071;52.360;13.134;2023-07-02T15:31:36;100277.69;;;24.27;36.09
10064;BME280;5071;52.360;13.134;2023-07-02T15:36:38;100267.94;;;24.00;35.57
10064;BME280;5071;52.360;13.134;2023-07-02T15:41:40;100270.03;;;23.73;36.64
10064;BME280;5071;52.360;13.134;2023-07-02T15:46:44;100278.34;;;23.82;37.17
10064;BME280;5071;52.360;13.134;2023-07-02T15:51:46;100260.47;;;23.43;36.77
10064;BME280;5071;52.360;13.134;2023-07-02T15:56:48;100261.63;;;24.24;37.22
10064;BME280;5071;52.360;13.134;2023-07-02T16:01:52;100279.00;;;23.86;36.16
10064;BME280;5071;52.360;13.134;2023-07-02T16:06:55;100270.91;;;23.36;36.20
10064;BME280;5071;52.360;13.134;2023-07-02T16:11:57;100275.09;;;23.40;36.56
10064;BME280;5071;52.360;13.134;2023-07-02T16:17:00;100267.03;;;23.52;36.95
10064;BME280;5071;52.360;13.134;2023-07-02T16:22:03;100284.78;;;23.32;36.02
10064;BME280;5071;52.360;13.134;2023-07-02T16:27:08;100300.16;;;23.31;36.44
10064;BME280;5071;52.360;13.134;2023-07-02T16:32:12;100286.47;;;23.45;38.21
10064;BME280;5071;52.360;13.134;2023-07-02T16:37:15;100289.13;;;23.21;37.90
10064;BME280;5071;52.360;13.134;2023-07-02T16:42:17;100288.28;;;23.08;37.80
10064;BME280;5071;52.360;13.134;2023-07-02T16:47:21;100289.28;;;23.44;38.36
10064;BME280;5071;52.360;13.134;2023-07-02T16:52:23;100289.63;;;23.76;37.20
10064;BME280;5071;52.360;13.134;2023-07-02T16:57:25;100301.47;;;23.25;37.34
10064;BME280;5071;52.360;13.134;2023-07-02T17:02:29;100299.09;;;22.82;38.23
10064;BME280;5071;52.360;13.134;2023-07-02T17:07:31;100303.06;;;23.41;38.09
10064;BME280;5071;52.360;13.134;2023-07-02T17:12:33;100283.44;;;23.50;39.23
10064;BME280;5071;52.360;13.134;2023-07-02T17:17:37;100298.78;;;23.62;37.51
10064;BME280;5071;52.360;13.134;2023-07-02T17:22:39;100292.66;;;23.84;37.47
10064;BME280;5071;52.360;13.134;2023-07-02T17:27:41;100314.97;;;23.51;37.63
10064;BME280;5071;52.360;13.134;2023-07-02T17:32:45;100314.97;;;23.51;37.36
10064;BME280;5071;52.360;13.134;2023-07-02T17:37:47;100312.06;;;22.39;39.14
10064;BME280;5071;52.360;13.134;2023-07-02T17:42:51;100320.91;;;22.01;40.16
10064;BME280;5071;52.360;13.134;2023-07-02T17:47:54;100312.16;;;21.83;41.17
10064;BME280;5071;52.360;13.134;2023-07-02T17:52:56;100316.28;;;21.61;40.69
10064;BME280;5071;52.360;13.134;2023-07-02T17:58:00;100308.97;;;21.49;41.24
10064;BME280;5071;52.360;13.134;2023-07-02T18:03:04;100319.38;;;21.41;41.26
10064;BME280;5071;52.360;13.134;2023-07-02T18:08:06;100315.59;;;21.72;41.14
10064;BME280;5071;52.360;13.134;2023-07-02T18:13:08;100320.94;;;21.45;40.79
10064;BME280;5071;52.360;13.134;2023-07-02T18:18:11;100314.97;;;21.54;41.22
10064;BME280;5071;52.360;13.134;2023-07-02T18:23:13;100315.94;;;21.53;41.48
10064;BME280;5071;52.360;13.134;2023-07-02T18:28:16;100321.50;;;21.64;42.18
10064;BME280;5071;52.360;13.134;2023-07-02T18:33:19;100322.84;;;21.43;42.33
10064;BME280;5071;52.360;13.134;2023-07-02T18:38:22;100314.31;;;21.36;42.70
10064;BME280;5071;52.360;13.134;2023-07-02T18:43:25;100318.44;;;21.27;42.78
10064;BME280;5071;52.360;13.134;2023-07-02T18:48:28;100323.16;;;21.24;43.34
10064;BME280;5071;52.360;13.134;2023-07-02T18:53:32;100333.00;;;20.96;45.16
10064;BME280;5071;52.360;13.134;2023-07-02T18:58:36;100334.38;;;20.58;45.23
10064;BME280;5071;52.360;13.134;2023-07-02T19:03:40;100333.16;;;20.34;46.03
10064;BME280;5071;52.360;13.134;2023-07-02T19:08:42;100329.22;;;20.09;46.47
10064;BME280;5071;52.360;13.134;2023-07-02T19:13:44;100328.44;;;19.91;47.04
10064;BME280;5071;52.360;13.134;2023-07-02T19:18:48;100335.50;;;19.62;47.73
10064;BME280;5071;52.360;13.134;2023-07-02T19:23:50;100348.00;;;19.47;48.87
10064;BME280;5071;52.360;13.134;2023-07-02T19:28:52;100341.72;;;19.31;48.82
10064;BME280;5071;52.360;13.134;2023-07-02T19:33:56;100331.88;;;19.14;48.15
10064;BME280;5071;52.360;13.134;2023-07-02T19:38:58;100347.03;;;18.99;49.11
10064;BME280;5071;52.360;13.134;2023-07-02T19:44:00;100346.81;;;18.86;49.31
10064;BME280;5071;52.360;13.134;2023-07-02T19:49:04;100353.94;;;18.70;49.42
10064;BME280;5071;52.360;13.134;2023-07-02T19:54:06;100360.56;;;18.62;49.57
10064;BME280;5071;52.360;13.134;2023-07-02T19:59:08;100357.56;;;18.51;51.13
10064;BME280;5071;52.360;13.134;2023-07-02T20:04:17;100366.63;;;18.49;49.82
10064;BME280;5071;52.360;13.134;2023-07-02T20:09:20;100378.09;;;18.35;50.08
10064;BME280;5071;52.360;13.134;2023-07-02T20:14:22;100380.31;;;18.26;51.25
10064;BME280;5071;52.360;13.134;2023-07-02T20:19:26;100379.47;;;18.07;51.56
10064;BME280;5071;52.360;13.134;2023-07-02T20:24:28;100376.31;;;17.99;51.93
10064;BME280;5071;52.360;13.134;2023-07-02T20:29:31;100383.00;;;17.90;52.13
10064;BME280;5071;52.360;13.134;2023-07-02T20:34:35;100380.59;;;17.65;53.13
10064;BME280;5071;52.360;13.134;2023-07-02T20:39:38;100386.69;;;17.49;53.59
10064;BME280;5071;52.360;13.134;2023-07-02T20:44:39;100383.41;;;17.43;52.96
10064;BME280;5071;52.360;13.134;2023-07-02T20:49:42;100390.97;;;17.35;52.88
10064;BME280;5071;52.360;13.134;2023-07-02T20:54:45;100393.09;;;17.26;53.28
10064;BME280;5071;52.360;13.134;2023-07-02T20:59:47;100392.94;;;17.10;54.10
10064;BME280;5071;52.360;13.134;2023-07-02T21:04:51;100389.41;;;16.89;57.13
10064;BME280;5071;52.360;13.134;2023-07-02T21:09:53;100394.53;;;16.53;57.10
10064;BME280;5071;52.360;13.134;2023-07-02T21:14:55;100396.41;;;16.51;56.57
10064;BME280;5071;52.360;13.134;2023-07-02T21:19:58;100402.09;;;16.43;55.55
10064;BME280;5071;52.360;13.134;2023-07-02T21:25:00;100398.97;;;16.54;56.60
10064;BME280;5071;52.360;13.134;2023-07-02T21:30:04;100409.78;;;16.51;56.28
10064;BME280;5071;52.360;13.134;2023-07-02T21:35:08;100405.09;;;16.36;55.48
10064;BME280;5071;52.360;13.134;2023-07-02T21:40:10;100415.63;;;16.18;55.99
10064;BME280;5071;52.360;13.134;2023-07-02T21:45:13;100411.47;;;16.11;57.48
10064;BME280;5071;52.360;13.134;2023-07-02T21:50:17;100406.91;;;16.13;56.74
10064;BME280;5071;52.360;13.134;2023-07-02T21:55:19;100418.78;;;16.06;56.97
10064;BME280;5071;52.360;13.134;2023-07-02T22:00:21;100420.16;;;15.94;57.57
10064;BME280;5071;52.360;13.134;2023-07-02T22:05:28;100417.66;;;15.89;58.88
10064;BME280;5071;52.360;13.134;2023-07-02T22:10:30;100428.63;;;15.83;58.21
10064;BME280;5071;52.360;13.134;2023-07-02T22:15:33;100425.69;;;15.66;60.27
10064;BME280;5071;52.360;13.134;2023-07-02T22:20:36;100415.81;;;15.44;59.86
10064;BME280;5071;52.360;13.134;2023-07-02T22:25:40;100432.28;;;15.33;60.13
10064;BME280;5071;52.360;13.134;2023-07-02T22:30:42;100433.84;;;15.39;61.26
10064;BME280;5071;52.360;13.134;2023-07-02T22:35:46;100426.06;;;15.31;60.64
10064;BME280;5071;52.360;13.134;2023-07-02T22:40:48;100436.03;;;15.28;61.22
10064;BME280;5071;52.360;13.134;2023-07-02T22:45:51;100419.34;;;15.21;61.06
10064;BME280;5071;52.360;13.134;2023-07-02T22:50:56;100415.91;;;15.18;61.28
10064;BME280;5071;52.360;13.134;2023-07-02T22:56:07;100418.44;;;14.97;62.53
10064;BME280;5071;52.360;13.134;2023-07-02T23:01:10;100411.19;;;14.75;64.77
10064;BME280;5071;52.360;13.134;2023-07-02T23:06:14;100427.34;;;14.44;66.67
10064;BME280;5071;52.360;13.134;2023-07-02T23:11:16;100417.31;;;14.24;67.59
10064;BME280;5071;52.360;13.134;2023-07-02T23:16:19;100417.09;;;14.04;69.01
10064;BME280;5071;52.360;13.134;2023-07-02T23:21:22;100416.75;;;13.86;69.75
10064;BME280;5071;52.360;13.134;2023-07-02T23:26:24;100410.75;;;13.79;70.43
10064;BME280;5071;52.360;13.134;2023-07-02T23:31:28;100411.16;;;13.66;71.10
10064;BME280;5071;52.360;13.134;2023-07-02T23:36:31;100410.06;;;13.43;72.54
10064;BME280;5071;52.360;13.134;2023-07-02T23:41:33;100403.94;;;13.39;72.77
10064;BME280;5071;52.360;13.134;2023-07-02T23:46:35;100402.66;;;13.21;73.33
10064;BME280;5071;52.360;13.134;2023-07-02T23:51:39;100410.88;;;13.14;73.01
10064;BME280;5071;52.360;13.134;2023-07-02T23:56:40;100411.00;;;13.09;73.51
